Terminal Aerodrome Forecast
Issued by NWS

Home | Current Version | Previous Version | Graphics & Text | Print | Product List | Glossary On
Versions: 1 2 3 4 5 6 7 8 9 10 11 12 13 14 15 16
000
FTUS43 KDVN 011120
TAFCID
TAF
KCID 011120Z 0112/0212 26008KT P6SM SKC
     FM020100 19006KT P6SM SCT060 PROB30 0204/0208 4SM TSRA
      OVC040CB=

USA.gov is the U.S. government's official web portal to all federal, state and local government web resources and services.